Time;durP1;ratioP1;P1;durP2;ratioP2;P2;SDS_P1;SDS_P2;PMS_P1;PMS_P2;Temp;Humidity;BMP_temperature;BMP_pressure;BME280_temperature;BME280_humidity;BME280_pressure;Samples;Min_cycle;Max_cycle;Signal;HPM_P1;HPM_P2
2023/06/18 00:00:53;;;;;;;1.70;0.93;;;;;;;;;;6244404;23;20172;-83
2023/06/18 00:03:23;;;;;;;3.40;2.47;;;;;;;;;;6244062;23;20184;-83
2023/06/18 00:05:54;;;;;;;1.80;1.70;;;;;;;;;;6244431;23;20185;-83
2023/06/18 00:08:23;;;;;;;2.30;2.10;;;;;;;;;;6243941;23;20166;-83
2023/06/18 00:10:53;;;;;;;2.33;2.13;;;;;;;;;;6244331;23;20180;-88
2023/06/18 00:13:21;;;;;;;3.93;2.87;;;;;;;;;;6244412;23;20207;-88
2023/06/18 00:15:50;;;;;;;2.43;1.97;;;;;;;;;;6244720;23;20175;-88
2023/06/18 00:18:18;;;;;;;3.67;3.27;;;;;;;;;;6244768;23;20235;-88
2023/06/18 00:20:48;;;;;;;3.33;3.07;;;;;;;;;;6244890;23;20169;-88
2023/06/18 00:23:17;;;;;;;6.87;5.50;;;;;;;;;;6244948;23;20224;-88
2023/06/18 00:25:46;;;;;;;3.47;2.57;;;;;;;;;;6244266;23;20204;-88
2023/06/18 00:28:15;;;;;;;1.70;1.60;;;;;;;;;;6245185;22;20196;-88
2023/06/18 00:30:44;;;;;;;8.17;5.20;;;;;;;;;;6244943;23;20231;-88
2023/06/18 00:33:12;;;;;;;12.87;7.03;;;;;;;;;;6244509;23;20172;-88
2023/06/18 00:35:42;;;;;;;5.97;3.80;;;;;;;;;;6244491;23;20181;-88
2023/06/18 00:38:10;;;;;;;3.67;3.13;;;;;;;;;;6244224;23;20186;-88
2023/06/18 00:40:39;;;;;;;1.50;1.40;;;;;;;;;;6245118;23;20181;-88
2023/06/18 00:43:08;;;;;;;6.20;3.80;;;;;;;;;;6244079;23;20188;-83
2023/06/18 00:45:38;;;;;;;9.37;5.90;;;;;;;;;;6244436;23;20218;-82
2023/06/18 00:48:10;;;;;;;1.50;1.47;;;;;;;;;;6244595;23;20173;-83
2023/06/18 00:50:38;;;;;;;4.70;2.00;;;;;;;;;;6243690;23;20201;-83
2023/06/18 00:53:13;;;;;;;1.73;1.63;;;;;;;;;;6244206;23;20184;-82
2023/06/18 00:55:42;;;;;;;6.90;4.60;;;;;;;;;;6244402;23;20180;-82
2023/06/18 00:58:13;;;;;;;1.27;1.17;;;;;;;;;;6244410;23;20209;-83
2023/06/18 01:00:43;;;;;;;1.90;1.80;;;;;;;;;;6243255;23;20174;-83
2023/06/18 01:03:16;;;;;;;3.70;3.20;;;;;;;;;;6244116;23;20178;-83
2023/06/18 01:05:46;;;;;;;4.37;3.47;;;;;;;;;;6244107;23;20183;-83
2023/06/18 01:08:17;;;;;;;4.63;2.63;;;;;;;;;;6243819;23;20175;-83
2023/06/18 01:10:46;;;;;;;4.70;3.13;;;;;;;;;;6243786;23;20243;-82
2023/06/18 01:13:16;;;;;;;1.67;1.57;;;;;;;;;;6243730;23;20205;-82
2023/06/18 01:15:45;;;;;;;1.73;1.67;;;;;;;;;;6243978;23;20179;-83
2023/06/18 01:18:14;;;;;;;0.33;0.33;;;;;;;;;;6243201;23;20198;-82
2023/06/18 01:20:44;;;;;;;2.03;1.83;;;;;;;;;;6244302;23;20199;-83
2023/06/18 01:23:14;;;;;;;9.20;3.07;;;;;;;;;;6244487;23;20212;-83
2023/06/18 01:25:44;;;;;;;3.53;2.83;;;;;;;;;;6243691;23;20176;-88
2023/06/18 01:28:15;;;;;;;1.80;1.80;;;;;;;;;;6244604;22;20196;-87
2023/06/18 01:30:44;;;;;;;2.97;2.77;;;;;;;;;;6244034;23;20180;-83
2023/06/18 01:33:14;;;;;;;2.73;2.53;;;;;;;;;;6244300;23;20189;-82
2023/06/18 01:35:42;;;;;;;0.93;0.93;;;;;;;;;;6245602;23;20172;-83
2023/06/18 01:38:26;;;;;;;6.20;3.40;;;;;;;;;;6246113;23;20222;-83
2023/06/18 01:40:56;;;;;;;14.77;3.60;;;;;;;;;;6243012;23;20184;-83
2023/06/18 01:43:28;;;;;;;6.70;4.67;;;;;;;;;;6245360;23;20203;-83
2023/06/18 01:45:58;;;;;;;0.67;0.67;;;;;;;;;;6245701;23;20205;-83
2023/06/18 01:48:29;;;;;;;3.13;2.53;;;;;;;;;;6246122;23;20177;-83
2023/06/18 01:51:01;;;;;;;0.97;0.70;;;;;;;;;;6245404;23;20179;-82
2023/06/18 01:53:30;;;;;;;0.93;0.93;;;;;;;;;;6245579;23;20175;-83
2023/06/18 01:55:59;;;;;;;0.93;0.93;;;;;;;;;;6245650;23;20171;-83
2023/06/18 01:58:28;;;;;;;0.40;0.40;;;;;;;;;;6245579;23;20219;-83
2023/06/18 02:00:58;;;;;;;3.23;2.93;;;;;;;;;;6244801;23;20173;-82
2023/06/18 02:03:26;;;;;;;1.23;1.23;;;;;;;;;;6245671;23;20208;-82
2023/06/18 02:05:57;;;;;;;2.03;1.93;;;;;;;;;;6245663;23;20177;-82
2023/06/18 02:08:25;;;;;;;3.83;2.00;;;;;;;;;;6245206;23;20171;-82
2023/06/18 02:10:53;;;;;;;0.53;0.53;;;;;;;;;;6245217;23;20184;-83
2023/06/18 02:13:25;;;;;;;2.53;2.43;;;;;;;;;;6245455;23;20195;-82
2023/06/18 02:15:53;;;;;;;2.43;2.23;;;;;;;;;;6245280;23;20191;-82
2023/06/18 02:18:25;;;;;;;1.37;1.33;;;;;;;;;;6244771;23;20266;-82
2023/06/18 02:20:53;;;;;;;0.90;0.90;;;;;;;;;;6245473;23;20203;-82
2023/06/18 02:23:23;;;;;;;0.77;0.77;;;;;;;;;;6245442;23;20179;-82
2023/06/18 02:25:52;;;;;;;1.77;1.70;;;;;;;;;;6244859;23;20177;-87
2023/06/18 02:28:20;;;;;;;0.30;0.30;;;;;;;;;;6245643;22;20200;-83
2023/06/18 02:30:49;;;;;;;0.33;0.33;;;;;;;;;;6245307;23;20234;-82
2023/06/18 02:33:18;;;;;;;1.33;1.33;;;;;;;;;;6245688;23;20238;-83
2023/06/18 02:35:46;;;;;;;4.87;3.13;;;;;;;;;;6244961;23;20262;-83
2023/06/18 02:38:15;;;;;;;4.60;3.43;;;;;;;;;;6245061;23;20202;-83
2023/06/18 02:40:45;;;;;;;1.30;1.27;;;;;;;;;;6245032;23;20210;-83
2023/06/18 02:43:13;;;;;;;2.57;2.37;;;;;;;;;;6245071;23;20186;-82
2023/06/18 02:45:42;;;;;;;2.30;2.00;;;;;;;;;;6244330;23;20209;-82
2023/06/18 02:48:10;;;;;;;3.70;2.67;;;;;;;;;;6245517;23;20172;-83
2023/06/18 02:50:39;;;;;;;0.30;0.30;;;;;;;;;;6245524;23;20197;-82
2023/06/18 02:53:07;;;;;;;1.73;1.63;;;;;;;;;;6244911;23;20185;-82
2023/06/18 02:55:36;;;;;;;4.40;2.33;;;;;;;;;;6245662;23;20192;-83
2023/06/18 02:58:09;;;;;;;1.50;1.47;;;;;;;;;;6246254;23;20181;-88
2023/06/18 03:00:37;;;;;;;2.10;2.00;;;;;;;;;;6245555;23;20274;-88
2023/06/18 03:03:08;;;;;;;0.90;0.90;;;;;;;;;;6245477;23;20189;-88
2023/06/18 03:05:36;;;;;;;1.97;0.77;;;;;;;;;;6245810;23;20177;-88
2023/06/18 03:08:06;;;;;;;2.70;2.50;;;;;;;;;;6245428;23;20228;-87
2023/06/18 03:10:34;;;;;;;2.40;2.20;;;;;;;;;;6245212;23;20174;-87
2023/06/18 03:13:03;;;;;;;3.30;1.17;;;;;;;;;;6244634;23;20206;-87
2023/06/18 03:15:32;;;;;;;2.63;1.10;;;;;;;;;;6246123;23;20184;-87
2023/06/18 03:18:01;;;;;;;0.30;0.30;;;;;;;;;;6244787;23;20177;-88
2023/06/18 03:20:30;;;;;;;1.07;1.07;;;;;;;;;;6245110;23;20197;-82
2023/06/18 03:22:59;;;;;;;1.10;1.10;;;;;;;;;;6244898;23;20188;-82
2023/06/18 03:25:27;;;;;;;0.40;0.40;;;;;;;;;;6244988;23;20187;-83
2023/06/18 03:27:56;;;;;;;4.40;3.50;;;;;;;;;;6244171;22;20200;-82
2023/06/18 03:30:24;;;;;;;8.07;6.07;;;;;;;;;;6245279;23;20232;-88
2023/06/18 03:32:56;;;;;;;2.20;1.80;;;;;;;;;;6244782;23;20210;-83
2023/06/18 03:35:24;;;;;;;1.83;1.73;;;;;;;;;;6244297;23;20181;-83
2023/06/18 03:37:53;;;;;;;2.60;2.40;;;;;;;;;;6245018;23;20180;-83
2023/06/18 03:40:21;;;;;;;1.73;1.63;;;;;;;;;;6244835;23;20197;-82
2023/06/18 03:42:50;;;;;;;2.37;1.73;;;;;;;;;;6244937;23;20190;-82
2023/06/18 03:45:19;;;;;;;3.60;2.60;;;;;;;;;;6244149;23;20213;-83
2023/06/18 03:47:50;;;;;;;2.83;2.23;;;;;;;;;;6244569;23;20206;-82
2023/06/18 03:50:20;;;;;;;1.57;1.47;;;;;;;;;;6244360;23;20180;-83
2023/06/18 03:52:49;;;;;;;1.23;1.23;;;;;;;;;;6244565;23;20200;-88
2023/06/18 03:55:18;;;;;;;3.00;2.10;;;;;;;;;;6244978;23;20181;-88
2023/06/18 03:57:46;;;;;;;1.70;1.60;;;;;;;;;;6244500;23;20176;-88
2023/06/18 04:00:15;;;;;;;5.17;2.37;;;;;;;;;;6244638;23;20206;-87
2023/06/18 04:02:44;;;;;;;3.10;1.57;;;;;;;;;;6244299;23;20180;-87
2023/06/18 04:05:12;;;;;;;3.23;2.93;;;;;;;;;;6244351;23;20190;-88
2023/06/18 04:07:42;;;;;;;0.40;0.40;;;;;;;;;;6244820;23;20198;-88
2023/06/18 04:10:11;;;;;;;2.40;2.30;;;;;;;;;;6244144;23;20176;-88
2023/06/18 04:12:39;;;;;;;12.07;1.23;;;;;;;;;;6244676;23;20188;-87
2023/06/18 04:15:11;;;;;;;2.63;2.30;;;;;;;;;;6244703;23;20178;-88
2023/06/18 04:17:40;;;;;;;2.83;2.63;;;;;;;;;;6244745;23;20182;-87
2023/06/18 04:20:10;;;;;;;2.90;2.70;;;;;;;;;;6243956;23;20288;-87
2023/06/18 04:22:38;;;;;;;0.30;0.30;;;;;;;;;;6244558;23;20205;-88
2023/06/18 04:25:09;;;;;;;1.83;1.73;;;;;;;;;;6244479;23;20173;-88
2023/06/18 04:27:38;;;;;;;2.30;2.10;;;;;;;;;;6244397;22;20203;-88
2023/06/18 04:30:07;;;;;;;5.40;2.40;;;;;;;;;;6244683;23;20224;-88
2023/06/18 04:32:36;;;;;;;2.20;2.10;;;;;;;;;;6244734;23;20181;-87
2023/06/18 04:35:05;;;;;;;6.13;3.23;;;;;;;;;;6244054;23;20183;-88
2023/06/18 04:37:33;;;;;;;1.60;1.50;;;;;;;;;;6244285;23;20254;-88
2023/06/18 04:40:02;;;;;;;1.23;1.23;;;;;;;;;;6244524;23;20191;-88
2023/06/18 04:42:32;;;;;;;0.73;0.73;;;;;;;;;;6244030;23;20172;-88
2023/06/18 04:45:01;;;;;;;6.10;2.27;;;;;;;;;;6243393;23;20205;-88
2023/06/18 04:47:30;;;;;;;1.40;1.30;;;;;;;;;;6244592;23;20181;-87
2023/06/18 04:49:58;;;;;;;2.53;2.20;;;;;;;;;;6245087;23;20177;-88
2023/06/18 04:52:26;;;;;;;0.60;0.60;;;;;;;;;;6244343;23;20174;-87
2023/06/18 04:54:55;;;;;;;2.23;1.50;;;;;;;;;;6244917;23;20182;-87
2023/06/18 04:57:24;;;;;;;0.83;0.83;;;;;;;;;;6244982;23;20173;-88
2023/06/18 04:59:54;;;;;;;3.10;2.80;;;;;;;;;;6244414;23;20196;-88
2023/06/18 05:02:22;;;;;;;2.33;2.17;;;;;;;;;;6243994;23;20266;-88
2023/06/18 05:04:51;;;;;;;1.47;1.47;;;;;;;;;;6244537;23;20253;-88
2023/06/18 05:07:19;;;;;;;2.13;1.93;;;;;;;;;;6244380;23;20208;-83
2023/06/18 05:09:48;;;;;;;1.13;1.13;;;;;;;;;;6245147;23;20179;-83
2023/06/18 05:12:16;;;;;;;0.83;0.83;;;;;;;;;;6245732;23;20180;-83
2023/06/18 05:14:45;;;;;;;1.07;0.97;;;;;;;;;;6245895;23;20170;-83
2023/06/18 05:17:14;;;;;;;2.10;2.00;;;;;;;;;;6246801;23;20188;-83
2023/06/18 05:19:43;;;;;;;2.13;2.00;;;;;;;;;;6245011;23;20171;-83
2023/06/18 05:22:11;;;;;;;1.73;1.63;;;;;;;;;;6246219;23;20186;-83
2023/06/18 05:24:40;;;;;;;0.80;0.80;;;;;;;;;;6246015;23;20182;-83
2023/06/18 05:27:09;;;;;;;0.50;0.50;;;;;;;;;;6245880;22;20200;-83
2023/06/18 05:29:37;;;;;;;1.97;1.87;;;;;;;;;;6246186;23;20185;-83
2023/06/18 05:32:07;;;;;;;1.50;1.40;;;;;;;;;;6245645;23;20185;-83
2023/06/18 05:34:36;;;;;;;1.33;1.33;;;;;;;;;;6245747;23;20190;-83
2023/06/18 05:37:05;;;;;;;4.17;3.70;;;;;;;;;;6245485;23;20179;-83
2023/06/18 05:39:33;;;;;;;7.73;3.87;;;;;;;;;;6246423;23;20184;-82
2023/06/18 05:42:02;;;;;;;1.80;1.70;;;;;;;;;;6245439;23;20197;-83
2023/06/18 05:44:31;;;;;;;3.53;3.23;;;;;;;;;;6245473;23;20263;-83
2023/06/18 05:46:59;;;;;;;2.77;2.37;;;;;;;;;;6245489;23;20171;-83
2023/06/18 05:49:28;;;;;;;6.60;2.47;;;;;;;;;;6246075;23;20185;-82
2023/06/18 05:51:58;;;;;;;6.20;3.03;;;;;;;;;;6245549;23;20173;-83
2023/06/18 05:54:26;;;;;;;18.57;2.10;;;;;;;;;;6245405;23;20235;-83
2023/06/18 05:56:55;;;;;;;3.37;2.57;;;;;;;;;;6245842;23;20182;-83
2023/06/18 05:59:23;;;;;;;1.83;1.73;;;;;;;;;;6245971;23;20187;-83
2023/06/18 06:01:51;;;;;;;3.53;3.23;;;;;;;;;;6244977;23;20196;-83
2023/06/18 06:04:22;;;;;;;3.23;2.93;;;;;;;;;;6245329;23;20223;-83
2023/06/18 06:06:51;;;;;;;0.60;0.60;;;;;;;;;;6245561;23;20197;-88
2023/06/18 06:09:21;;;;;;;2.23;2.03;;;;;;;;;;6246351;23;20180;-83
2023/06/18 06:11:49;;;;;;;2.97;2.67;;;;;;;;;;6245039;23;20230;-83
2023/06/18 06:14:18;;;;;;;1.70;1.43;;;;;;;;;;6245364;23;20188;-83
2023/06/18 06:16:46;;;;;;;1.80;1.70;;;;;;;;;;6245298;23;20173;-83
2023/06/18 06:19:15;;;;;;;2.20;2.00;;;;;;;;;;6245212;23;20213;-83
2023/06/18 06:21:43;;;;;;;10.10;5.47;;;;;;;;;;6244731;23;20193;-83
2023/06/18 06:24:12;;;;;;;1.73;1.60;;;;;;;;;;6245885;23;20177;-83
2023/06/18 06:26:42;;;;;;;2.50;2.33;;;;;;;;;;6245281;22;20258;-83
2023/06/18 06:29:10;;;;;;;1.33;1.33;;;;;;;;;;6245730;23;20190;-83
2023/06/18 06:31:39;;;;;;;9.33;3.00;;;;;;;;;;6245129;23;20230;-83
2023/06/18 06:34:11;;;;;;;4.10;3.80;;;;;;;;;;6245181;23;20166;-83
2023/06/18 06:36:39;;;;;;;6.47;3.97;;;;;;;;;;6245198;23;20184;-83
2023/06/18 06:39:08;;;;;;;2.03;1.90;;;;;;;;;;6245480;23;20180;-82
2023/06/18 06:41:36;;;;;;;2.43;2.10;;;;;;;;;;6245823;23;20195;-83
2023/06/18 06:44:06;;;;;;;1.87;1.77;;;;;;;;;;6244924;23;20174;-83
2023/06/18 06:46:35;;;;;;;6.53;3.23;;;;;;;;;;6244881;23;20228;-83
2023/06/18 06:49:07;;;;;;;4.93;4.20;;;;;;;;;;6245288;23;20183;-82
2023/06/18 06:51:36;;;;;;;2.77;2.43;;;;;;;;;;6245426;23;20180;-83
2023/06/18 06:54:05;;;;;;;3.27;2.37;;;;;;;;;;6245018;23;20210;-83
2023/06/18 06:56:34;;;;;;;9.67;3.23;;;;;;;;;;6245539;23;20181;-88
2023/06/18 06:59:03;;;;;;;3.73;2.97;;;;;;;;;;6245047;23;20180;-88
2023/06/18 07:01:33;;;;;;;3.90;2.80;;;;;;;;;;6244620;23;20192;-88
2023/06/18 07:04:01;;;;;;;0.37;0.37;;;;;;;;;;6244493;23;20175;-88
2023/06/18 07:06:30;;;;;;;8.20;5.07;;;;;;;;;;6245652;23;20176;-88
2023/06/18 07:08:59;;;;;;;6.13;3.93;;;;;;;;;;6246119;23;20177;-88
2023/06/18 07:11:27;;;;;;;5.33;4.67;;;;;;;;;;6245107;23;20264;-83
2023/06/18 07:13:56;;;;;;;1.00;1.00;;;;;;;;;;6245443;23;20185;-83
2023/06/18 07:16:24;;;;;;;1.90;0.97;;;;;;;;;;6245159;23;20177;-83
2023/06/18 07:18:54;;;;;;;7.17;6.33;;;;;;;;;;6244777;23;20171;-83
2023/06/18 07:21:22;;;;;;;4.73;2.73;;;;;;;;;;6244145;23;20212;-83
2023/06/18 07:23:51;;;;;;;3.67;2.17;;;;;;;;;;6244898;23;20184;-88
2023/06/18 07:26:19;;;;;;;0.30;0.30;;;;;;;;;;6245425;23;20178;-88
2023/06/18 07:28:48;;;;;;;4.90;4.50;;;;;;;;;;6244321;22;20201;-88
2023/06/18 07:31:16;;;;;;;3.47;2.63;;;;;;;;;;6244931;23;20176;-88
2023/06/18 07:33:45;;;;;;;6.13;4.60;;;;;;;;;;6245549;23;20186;-88
2023/06/18 07:36:14;;;;;;;3.30;2.83;;;;;;;;;;6245388;23;20204;-88
2023/06/18 07:38:43;;;;;;;1.80;1.70;;;;;;;;;;6244450;23;20172;-88
2023/06/18 07:41:11;;;;;;;0.73;0.73;;;;;;;;;;6244733;23;20184;-88
2023/06/18 07:43:40;;;;;;;0.60;0.60;;;;;;;;;;6245133;23;20188;-88
2023/06/18 07:46:09;;;;;;;1.07;1.07;;;;;;;;;;6244114;23;20287;-88
2023/06/18 07:48:37;;;;;;;0.60;0.60;;;;;;;;;;6245059;23;20179;-88
2023/06/18 07:51:08;;;;;;;1.10;0.60;;;;;;;;;;6245246;23;20184;-88
2023/06/18 07:53:39;;;;;;;5.30;4.67;;;;;;;;;;6245010;23;20231;-88
2023/06/18 07:56:08;;;;;;;4.33;4.00;;;;;;;;;;6245004;23;20169;-88
2023/06/18 07:58:36;;;;;;;0.43;0.43;;;;;;;;;;6245422;23;20178;-88
2023/06/18 08:01:05;;;;;;;0.50;0.50;;;;;;;;;;6244651;23;20188;-83
2023/06/18 08:03:33;;;;;;;0.77;0.40;;;;;;;;;;6243603;23;20205;-83
2023/06/18 08:06:02;;;;;;;5.43;3.30;;;;;;;;;;6244667;23;20184;-83
2023/06/18 08:08:31;;;;;;;3.77;2.40;;;;;;;;;;6244589;23;20364;-88
2023/06/18 08:11:01;;;;;;;6.00;2.83;;;;;;;;;;6245001;23;20199;-88
2023/06/18 08:13:31;;;;;;;1.03;1.03;;;;;;;;;;6244451;23;20170;-88
2023/06/18 08:15:59;;;;;;;1.00;0.93;;;;;;;;;;6245063;23;20235;-83
2023/06/18 08:18:28;;;;;;;1.90;1.80;;;;;;;;;;6244767;23;20201;-83
2023/06/18 08:21:03;;;;;;;1.73;1.63;;;;;;;;;;6243992;23;20173;-83
2023/06/18 08:23:33;;;;;;;1.73;1.63;;;;;;;;;;6244772;23;20288;-83
2023/06/18 08:26:02;;;;;;;4.27;3.07;;;;;;;;;;6244210;23;20170;-83
2023/06/18 08:28:32;;;;;;;4.73;4.10;;;;;;;;;;6244553;22;20252;-88
2023/06/18 08:31:01;;;;;;;7.30;4.33;;;;;;;;;;6244380;23;20174;-88
2023/06/18 08:33:29;;;;;;;2.77;2.33;;;;;;;;;;6244356;23;20195;-88
2023/06/18 08:35:58;;;;;;;0.43;0.43;;;;;;;;;;6244210;23;20178;-88
2023/06/18 08:38:26;;;;;;;4.23;3.83;;;;;;;;;;6244183;23;20186;-88
2023/06/18 08:40:58;;;;;;;1.97;1.80;;;;;;;;;;6245045;23;20179;-88
2023/06/18 08:43:32;;;;;;;2.00;1.90;;;;;;;;;;6245479;23;20185;-88
2023/06/18 08:46:04;;;;;;;3.40;3.00;;;;;;;;;;6247318;23;20230;-88
2023/06/18 08:48:33;;;;;;;1.50;1.40;;;;;;;;;;6248205;23;20184;-88
2023/06/18 08:51:05;;;;;;;6.30;3.23;;;;;;;;;;6248544;23;20186;-88
2023/06/18 08:53:40;;;;;;;2.20;2.10;;;;;;;;;;6248357;23;20195;-88
2023/06/18 08:56:09;;;;;;;7.13;5.03;;;;;;;;;;6247809;23;20188;-88
2023/06/18 08:58:42;;;;;;;9.50;5.83;;;;;;;;;;6248108;23;20189;-88
2023/06/18 09:01:11;;;;;;;3.17;1.83;;;;;;;;;;6248226;23;20186;-88
2023/06/18 09:03:40;;;;;;;0.97;0.97;;;;;;;;;;6247395;23;20194;-88
2023/06/18 09:06:09;;;;;;;1.17;1.07;;;;;;;;;;6248216;23;20181;-89
2023/06/18 09:08:38;;;;;;;2.23;2.00;;;;;;;;;;6247611;23;20171;-88
2023/06/18 09:11:07;;;;;;;3.37;2.07;;;;;;;;;;6246909;23;20179;-83
2023/06/18 09:13:40;;;;;;;2.47;2.27;;;;;;;;;;6247725;23;20179;-83
2023/06/18 09:16:10;;;;;;;2.23;2.00;;;;;;;;;;6247247;23;20178;-83
2023/06/18 09:18:39;;;;;;;5.67;4.30;;;;;;;;;;6247343;23;20186;-83
2023/06/18 09:21:07;;;;;;;3.43;2.63;;;;;;;;;;6246967;23;20181;-83
2023/06/18 09:23:35;;;;;;;1.80;1.70;;;;;;;;;;6247512;23;20201;-83
2023/06/18 09:26:04;;;;;;;3.50;2.20;;;;;;;;;;6247229;23;20173;-83
2023/06/18 09:28:32;;;;;;;8.90;5.30;;;;;;;;;;6247439;22;20194;-83
2023/06/18 09:31:03;;;;;;;4.87;4.13;;;;;;;;;;6246997;23;20217;-83
2023/06/18 09:33:34;;;;;;;2.17;1.97;;;;;;;;;;6247078;23;20177;-83
2023/06/18 09:36:04;;;;;;;5.50;3.90;;;;;;;;;;6247662;23;20182;-83
2023/06/18 09:38:34;;;;;;;3.30;3.00;;;;;;;;;;6246949;23;20180;-83
2023/06/18 09:41:03;;;;;;;2.70;2.13;;;;;;;;;;6247114;23;20177;-83
2023/06/18 09:43:35;;;;;;;0.60;0.60;;;;;;;;;;6247218;23;20189;-83
2023/06/18 09:46:07;;;;;;;2.23;2.13;;;;;;;;;;6246677;23;20212;-83
2023/06/18 09:48:38;;;;;;;3.23;2.93;;;;;;;;;;6247295;23;20182;-83
2023/06/18 09:51:10;;;;;;;3.67;2.83;;;;;;;;;;6247397;23;20196;-83
2023/06/18 09:53:38;;;;;;;1.90;1.80;;;;;;;;;;6247822;23;20162;-83
2023/06/18 09:56:10;;;;;;;4.27;1.77;;;;;;;;;;6245472;23;20177;-83
2023/06/18 09:58:43;;;;;;;2.73;2.53;;;;;;;;;;6245746;23;20185;-83
2023/06/18 10:01:12;;;;;;;0.60;0.60;;;;;;;;;;6246219;23;20182;-83
2023/06/18 10:03:42;;;;;;;7.70;5.97;;;;;;;;;;6245385;23;20190;-83
2023/06/18 10:06:16;;;;;;;5.70;4.47;;;;;;;;;;6245448;23;20216;-83
2023/06/18 10:08:46;;;;;;;4.40;4.00;;;;;;;;;;6245702;23;20297;-83
2023/06/18 10:11:15;;;;;;;0.90;0.90;;;;;;;;;;6245951;23;20193;-83
2023/06/18 10:13:46;;;;;;;5.57;5.00;;;;;;;;;;6246057;23;20166;-83
2023/06/18 10:16:16;;;;;;;4.23;3.83;;;;;;;;;;6245748;23;20182;-83
2023/06/18 10:18:50;;;;;;;2.80;2.60;;;;;;;;;;6245693;23;20181;-89
2023/06/18 10:21:19;;;;;;;8.73;5.53;;;;;;;;;;6244945;23;20178;-89
2023/06/18 10:23:48;;;;;;;9.43;4.00;;;;;;;;;;6245956;23;20194;-89
2023/06/18 10:26:17;;;;;;;4.00;2.20;;;;;;;;;;6245893;23;20173;-84
2023/06/18 10:28:45;;;;;;;3.53;3.23;;;;;;;;;;6245444;22;20193;-83
2023/06/18 10:31:14;;;;;;;2.83;2.43;;;;;;;;;;6245642;23;20200;-83
2023/06/18 10:33:43;;;;;;;2.57;2.37;;;;;;;;;;6245572;23;20170;-83
2023/06/18 10:36:13;;;;;;;5.43;3.37;;;;;;;;;;6245247;23;20228;-83
2023/06/18 10:38:42;;;;;;;0.63;0.50;;;;;;;;;;6244821;23;20173;-83
2023/06/18 10:41:11;;;;;;;3.07;2.17;;;;;;;;;;6245360;23;20178;-83
2023/06/18 10:43:40;;;;;;;1.20;1.20;;;;;;;;;;6245604;23;20182;-83
2023/06/18 10:46:09;;;;;;;2.77;2.13;;;;;;;;;;6244803;23;20201;-83
2023/06/18 10:48:38;;;;;;;5.53;5.00;;;;;;;;;;6245885;23;20174;-83
2023/06/18 10:51:15;;;;;;;4.27;3.93;;;;;;;;;;6245334;23;20174;-83
2023/06/18 10:53:44;;;;;;;4.00;3.63;;;;;;;;;;6245640;23;20169;-83
2023/06/18 10:56:14;;;;;;;0.30;0.30;;;;;;;;;;6244550;23;20177;-83
2023/06/18 10:58:43;;;;;;;4.23;2.53;;;;;;;;;;6245915;23;20169;-84
2023/06/18 11:01:27;;;;;;;2.90;1.97;;;;;;;;;;6245508;23;20177;-83
2023/06/18 11:04:02;;;;;;;8.30;2.20;;;;;;;;;;6244615;23;20185;-84
2023/06/18 11:06:32;;;;;;;0.70;0.70;;;;;;;;;;6244892;23;20180;-83
2023/06/18 11:09:01;;;;;;;2.97;1.97;;;;;;;;;;6244972;23;20184;-83
2023/06/18 11:11:32;;;;;;;3.20;2.80;;;;;;;;;;6244373;23;20173;-83
2023/06/18 11:14:19;;;;;;;3.83;3.43;;;;;;;;;;6244502;23;20184;-83
2023/06/18 11:17:08;;;;;;;3.67;3.33;;;;;;;;;;6244637;23;20166;-83
2023/06/18 11:19:37;;;;;;;4.20;3.53;;;;;;;;;;6245502;23;20178;-83
2023/06/18 11:22:10;;;;;;;7.30;5.17;;;;;;;;;;6243362;23;20180;-83
2023/06/18 11:24:39;;;;;;;6.50;4.60;;;;;;;;;;6245140;23;20189;-82
2023/06/18 11:27:08;;;;;;;5.23;4.73;;;;;;;;;;6244554;22;20280;-83
2023/06/18 11:29:36;;;;;;;4.43;4.03;;;;;;;;;;6245728;23;20173;-83
2023/06/18 11:32:14;;;;;;;11.20;4.70;;;;;;;;;;6243416;23;20216;-83
2023/06/18 11:34:42;;;;;;;11.03;5.30;;;;;;;;;;6245215;23;20178;-83
2023/06/18 11:37:12;;;;;;;6.70;2.30;;;;;;;;;;6246955;23;20257;-83
2023/06/18 11:39:42;;;;;;;9.73;6.07;;;;;;;;;;6245819;23;20199;-83
2023/06/18 11:42:14;;;;;;;6.97;5.50;;;;;;;;;;6245054;23;20174;-83
2023/06/18 11:44:48;;;;;;;7.43;6.33;;;;;;;;;;6245205;23;20259;-82
2023/06/18 11:47:16;;;;;;;6.27;4.23;;;;;;;;;;6244432;23;20234;-83
2023/06/18 11:49:45;;;;;;;2.93;2.27;;;;;;;;;;6244904;23;20188;-83
2023/06/18 11:52:18;;;;;;;3.87;3.57;;;;;;;;;;6244323;23;20196;-83
2023/06/18 11:54:46;;;;;;;3.77;2.93;;;;;;;;;;6244472;23;20215;-83
2023/06/18 11:57:15;;;;;;;3.73;2.77;;;;;;;;;;6244761;23;20181;-82
2023/06/18 11:59:44;;;;;;;0.63;0.60;;;;;;;;;;6245501;23;20174;-83
2023/06/18 12:02:13;;;;;;;5.10;3.73;;;;;;;;;;6244634;23;20181;-83
2023/06/18 12:04:43;;;;;;;3.47;3.17;;;;;;;;;;6244408;23;20223;-83
2023/06/18 12:07:16;;;;;;;4.53;3.37;;;;;;;;;;6245133;23;20177;-83
2023/06/18 12:09:46;;;;;;;4.57;3.97;;;;;;;;;;6245269;23;20545;-83
2023/06/18 12:12:19;;;;;;;1.70;1.27;;;;;;;;;;6243800;23;20173;-83
2023/06/18 12:14:51;;;;;;;5.30;2.17;;;;;;;;;;6243864;23;20170;-83
2023/06/18 12:17:22;;;;;;;7.30;4.13;;;;;;;;;;6244831;23;20177;-83
2023/06/18 12:19:54;;;;;;;3.17;2.73;;;;;;;;;;6244128;23;20166;-83
2023/06/18 12:22:23;;;;;;;6.80;6.03;;;;;;;;;;6243569;23;20216;-83
2023/06/18 12:24:53;;;;;;;3.20;2.57;;;;;;;;;;6244469;23;20235;-83
2023/06/18 12:27:24;;;;;;;7.63;5.77;;;;;;;;;;6244651;22;20189;-88
2023/06/18 12:29:53;;;;;;;6.23;4.23;;;;;;;;;;6244450;23;20256;-83
2023/06/18 12:32:21;;;;;;;6.13;3.30;;;;;;;;;;6244451;23;20192;-83
2023/06/18 12:34:50;;;;;;;6.70;4.70;;;;;;;;;;6244483;23;20197;-83
2023/06/18 12:37:19;;;;;;;4.57;3.50;;;;;;;;;;6244593;23;20193;-83
2023/06/18 12:40:10;;;;;;;4.13;3.83;;;;;;;;;;6243602;23;20178;-83
2023/06/18 12:42:38;;;;;;;6.60;4.90;;;;;;;;;;6244027;23;20201;-83
2023/06/18 12:45:07;;;;;;;8.73;7.50;;;;;;;;;;6244155;23;20193;-83
2023/06/18 12:47:39;;;;;;;3.73;3.43;;;;;;;;;;6244890;23;20176;-88
2023/06/18 12:50:08;;;;;;;7.90;4.50;;;;;;;;;;6243703;23;20172;-83
2023/06/18 12:52:41;;;;;;;1.07;0.70;;;;;;;;;;6244746;23;20177;-82
2023/06/18 12:55:14;;;;;;;4.60;4.20;;;;;;;;;;6243959;23;20196;-83
2023/06/18 12:57:44;;;;;;;7.73;6.77;;;;;;;;;;6244281;23;20174;-88
2023/06/18 13:00:17;;;;;;;7.10;6.27;;;;;;;;;;6243869;23;20184;-84
2023/06/18 13:02:45;;;;;;;7.93;6.60;;;;;;;;;;6243811;23;20187;-83
2023/06/18 13:05:14;;;;;;;8.47;7.67;;;;;;;;;;6243953;23;20216;-83
2023/06/18 13:07:50;;;;;;;13.73;6.47;;;;;;;;;;6244584;23;20208;-83
2023/06/18 13:10:22;;;;;;;8.97;5.30;;;;;;;;;;6244202;23;20183;-83
2023/06/18 13:12:51;;;;;;;4.67;4.27;;;;;;;;;;6244425;23;20177;-83
2023/06/18 13:15:19;;;;;;;2.57;2.10;;;;;;;;;;6243612;23;20173;-83
2023/06/18 13:17:49;;;;;;;1.33;1.30;;;;;;;;;;6243497;23;20173;-82
2023/06/18 13:20:18;;;;;;;0.37;0.37;;;;;;;;;;6243998;23;20181;-81
2023/06/18 13:22:47;;;;;;;3.47;3.20;;;;;;;;;;6243991;23;20234;-82
2023/06/18 13:25:16;;;;;;;3.77;3.10;;;;;;;;;;6244981;23;20193;-82
2023/06/18 13:27:48;;;;;;;3.60;2.47;;;;;;;;;;6244539;22;20266;-82
2023/06/18 13:30:17;;;;;;;1.37;1.27;;;;;;;;;;6245944;23;20184;-88
2023/06/18 13:32:48;;;;;;;5.30;3.73;;;;;;;;;;6246002;23;20177;-88
2023/06/18 13:35:17;;;;;;;7.40;6.37;;;;;;;;;;6246304;23;20178;-88
2023/06/18 13:37:46;;;;;;;1.70;1.60;;;;;;;;;;6246305;23;20230;-88
2023/06/18 13:40:15;;;;;;;3.13;2.17;;;;;;;;;;6246097;23;20170;-88
2023/06/18 13:42:44;;;;;;;3.33;3.03;;;;;;;;;;6246069;23;20170;-88
2023/06/18 13:45:13;;;;;;;5.87;4.03;;;;;;;;;;6246323;23;20197;-87
2023/06/18 13:47:42;;;;;;;3.73;3.40;;;;;;;;;;6246803;23;20181;-82
2023/06/18 13:50:11;;;;;;;2.33;2.10;;;;;;;;;;6246790;23;20178;-82
2023/06/18 13:52:40;;;;;;;2.60;2.40;;;;;;;;;;6247553;23;20181;-82
2023/06/18 13:55:09;;;;;;;5.17;4.47;;;;;;;;;;6247128;23;20219;-82
2023/06/18 13:57:38;;;;;;;3.07;2.73;;;;;;;;;;6247215;23;20256;-82
2023/06/18 14:00:07;;;;;;;4.57;2.97;;;;;;;;;;6246889;23;20197;-82
2023/06/18 14:02:37;;;;;;;3.67;3.23;;;;;;;;;;6246678;23;20180;-82
2023/06/18 14:05:07;;;;;;;6.80;5.63;;;;;;;;;;6246196;23;20228;-82
2023/06/18 14:07:36;;;;;;;4.67;4.23;;;;;;;;;;6247252;23;20174;-82
2023/06/18 14:10:05;;;;;;;5.57;3.77;;;;;;;;;;6247410;23;20169;-84
2023/06/18 14:12:34;;;;;;;4.77;3.07;;;;;;;;;;6246688;23;20188;-83
2023/06/18 14:15:04;;;;;;;2.23;2.07;;;;;;;;;;6244784;23;20173;-83
2023/06/18 14:17:32;;;;;;;2.27;1.97;;;;;;;;;;6245496;23;20176;-84
2023/06/18 14:20:03;;;;;;;2.07;2.00;;;;;;;;;;6245514;23;20188;-89
2023/06/18 14:22:34;;;;;;;3.93;3.53;;;;;;;;;;6245431;23;20173;-88
2023/06/18 14:25:03;;;;;;;1.80;1.73;;;;;;;;;;6246297;23;20197;-89
2023/06/18 14:27:31;;;;;;;3.73;3.10;;;;;;;;;;6246015;22;20265;-89
2023/06/18 14:30:00;;;;;;;1.50;1.03;;;;;;;;;;6245805;23;20188;-84
2023/06/18 14:32:29;;;;;;;3.87;3.57;;;;;;;;;;6244998;23;20203;-83
2023/06/18 14:34:57;;;;;;;2.17;1.73;;;;;;;;;;6245451;23;20183;-83
2023/06/18 14:37:27;;;;;;;3.40;2.13;;;;;;;;;;6245417;23;20177;-84
2023/06/18 14:39:56;;;;;;;3.57;2.60;;;;;;;;;;6245398;23;20194;-84
2023/06/18 14:42:24;;;;;;;3.50;3.20;;;;;;;;;;6244373;23;20177;-83
2023/06/18 14:44:53;;;;;;;3.20;2.20;;;;;;;;;;6245415;23;20245;-84
2023/06/18 14:47:21;;;;;;;4.27;3.90;;;;;;;;;;6245686;23;20181;-83
2023/06/18 14:49:54;;;;;;;3.30;2.57;;;;;;;;;;6244610;23;20176;-84
2023/06/18 14:52:23;;;;;;;4.93;4.53;;;;;;;;;;6245387;23;20180;-83
2023/06/18 14:54:53;;;;;;;3.33;3.00;;;;;;;;;;6245082;23;20176;-83
2023/06/18 14:57:24;;;;;;;4.27;2.53;;;;;;;;;;6244897;23;20184;-84